Amery, Wisconsin
Current Conditions -  °F | °C
As of 12:35 PM on Monday 20 Oct 2014 (Local Time) from KRNH Reporting Station
Scattered Clouds Scattered Clouds  
Wind Chill: 58°   Ceiling: Unl
Heat Index: 58°   Visibility: 10mi
Dew Point: 41°   Wind: 9mph
Humidity: 53%   Direction: 330°NNW
Pressure: 29.99"   Gusts: NA
Location:  45.31°N, 92.36°W
Report Text: KRNH 201735Z AUTO 33008KT 10SM SCT031 14/05 A2999 RMK AO2 T01440049
Loading
Personal Weather Stations






























Interactive Weather Map
Tropical Storm Tracking
New forecast layout! Learn more

10-Day Weather Forecast

Advertisements
Track Severe Weather on mobile